createdAt,value
2018-07-23T00:01:34.910Z,6.00
2018-07-23T00:04:02.475Z,5.43
2018-07-23T00:06:30.061Z,6.07
2018-07-23T00:08:57.588Z,5.83
2018-07-23T00:11:25.146Z,5.50
2018-07-23T00:13:52.640Z,5.90
2018-07-23T00:16:20.411Z,6.27
2018-07-23T00:18:47.980Z,5.83
2018-07-23T00:21:15.493Z,5.27
2018-07-23T00:23:42.997Z,4.87
2018-07-23T00:26:10.493Z,5.50
2018-07-23T00:28:38.019Z,5.47
2018-07-23T00:31:05.553Z,5.53
2018-07-23T00:33:33.081Z,6.53
2018-07-23T00:36:00.539Z,4.70
2018-07-23T00:38:28.089Z,4.97
2018-07-23T00:40:55.619Z,5.20
2018-07-23T00:43:23.144Z,5.53
2018-07-23T00:45:50.671Z,5.57
2018-07-23T00:48:18.159Z,5.27
2018-07-23T00:50:45.639Z,5.83
2018-07-23T00:53:13.153Z,5.97
2018-07-23T00:55:40.628Z,6.00
2018-07-23T00:58:08.131Z,5.97
2018-07-23T01:00:35.671Z,6.43
2018-07-23T01:03:05.158Z,5.47
2018-07-23T01:05:32.807Z,5.67
2018-07-23T01:08:00.401Z,5.00
2018-07-23T01:10:27.999Z,5.40
2018-07-23T01:12:55.557Z,6.10
2018-07-23T01:15:23.091Z,6.07
2018-07-23T01:17:50.705Z,5.67
2018-07-23T01:20:18.251Z,5.63
2018-07-23T01:22:45.796Z,5.20
2018-07-23T01:25:13.312Z,5.33
2018-07-23T01:27:40.844Z,5.47
2018-07-23T01:30:08.414Z,5.27
2018-07-23T01:32:35.944Z,6.10
2018-07-23T01:35:03.498Z,5.93
2018-07-23T01:37:31.045Z,5.33
2018-07-23T01:39:58.615Z,5.43
2018-07-23T01:42:26.141Z,5.50
2018-07-23T01:44:53.657Z,5.70
2018-07-23T01:47:21.151Z,5.73
2018-07-23T01:49:48.669Z,6.30
2018-07-23T01:52:16.215Z,6.47
2018-07-23T01:54:43.732Z,6.47
2018-07-23T01:57:11.240Z,6.73
2018-07-23T01:59:38.720Z,6.10
2018-07-23T02:02:06.238Z,6.43
2018-07-23T02:04:37.451Z,6.67
2018-07-23T02:07:05.743Z,6.77
2018-07-23T02:09:33.259Z,6.57
2018-07-23T02:12:00.775Z,6.40
2018-07-23T02:14:28.276Z,6.27
2018-07-23T02:16:55.786Z,6.57
2018-07-23T02:19:23.341Z,6.50
2018-07-23T02:21:50.903Z,6.50
2018-07-23T02:24:18.397Z,6.83
2018-07-23T02:26:45.928Z,6.77
2018-07-23T02:29:13.423Z,6.30
2018-07-23T02:31:40.979Z,7.37
2018-07-23T02:34:08.571Z,6.83
2018-07-23T02:36:36.114Z,6.37
2018-07-23T02:39:07.016Z,6.23
2018-07-23T02:41:34.540Z,7.10
2018-07-23T02:44:02.082Z,7.20
2018-07-23T02:46:29.584Z,7.10
2018-07-23T02:48:57.160Z,6.90
2018-07-23T02:51:24.677Z,7.50
2018-07-23T02:53:52.212Z,8.03
2018-07-23T02:56:19.699Z,7.87
2018-07-23T02:58:47.239Z,8.57
2018-07-23T03:01:14.844Z,9.20
2018-07-23T03:03:42.385Z,9.30
2018-07-23T03:06:09.888Z,10.00
2018-07-23T03:08:37.381Z,9.63
2018-07-23T03:11:04.928Z,10.93
2018-07-23T03:13:32.414Z,9.23
2018-07-23T03:15:59.948Z,9.37
2018-07-23T03:18:27.441Z,8.93
2018-07-23T03:20:55.017Z,10.23
2018-07-23T03:23:22.523Z,10.23
2018-07-23T03:25:50.016Z,10.43
2018-07-23T03:28:17.503Z,10.20
2018-07-23T03:30:45.012Z,9.40
2018-07-23T03:33:12.519Z,10.03
2018-07-23T03:35:40.034Z,11.60
2018-07-23T03:38:07.580Z,11.13
2018-07-23T03:40:35.064Z,11.57
2018-07-23T03:43:02.620Z,11.33
2018-07-23T03:45:30.182Z,10.73
2018-07-23T03:47:57.732Z,10.23
2018-07-23T03:50:25.279Z,11.10
2018-07-23T03:52:52.756Z,11.23
2018-07-23T03:55:20.298Z,12.40
2018-07-23T03:57:47.840Z,12.73
2018-07-23T04:00:15.383Z,11.67
2018-07-23T04:02:42.884Z,11.67
2018-07-23T04:05:10.440Z,11.63
2018-07-23T04:07:37.979Z,10.87
2018-07-23T04:10:05.668Z,11.57
2018-07-23T04:12:33.183Z,10.67
2018-07-23T04:15:00.752Z,11.13
2018-07-23T04:17:28.288Z,11.70
2018-07-23T04:19:55.753Z,11.90
2018-07-23T04:22:23.296Z,12.33
2018-07-23T04:24:50.874Z,12.30
2018-07-23T04:27:18.400Z,11.30
2018-07-23T04:29:45.907Z,11.13
2018-07-23T04:32:13.407Z,10.53
2018-07-23T04:34:40.980Z,10.90
2018-07-23T04:37:08.540Z,11.00
2018-07-23T04:39:36.052Z,10.90
2018-07-23T04:42:03.594Z,26.40
2018-07-23T04:44:31.104Z,17.33
2018-07-23T04:46:58.665Z,10.50
2018-07-23T04:49:26.140Z,9.83
2018-07-23T04:51:53.680Z,10.13
2018-07-23T04:54:21.209Z,9.37
2018-07-23T04:56:48.730Z,9.70
2018-07-23T04:59:16.228Z,8.80
2018-07-23T05:01:44.028Z,8.23
2018-07-23T05:04:11.856Z,9.20
2018-07-23T05:06:39.469Z,9.10
2018-07-23T05:09:10.538Z,9.70
2018-07-23T05:11:38.406Z,9.13
2018-07-23T05:14:06.457Z,9.90
2018-07-23T05:16:34.109Z,9.57
2018-07-23T05:19:01.807Z,13.67
2018-07-23T05:21:29.377Z,9.97
2018-07-23T05:23:56.908Z,10.10
2018-07-23T05:26:24.363Z,9.67
2018-07-23T05:28:51.988Z,10.37
2018-07-23T05:31:19.528Z,10.03
2018-07-23T05:33:47.017Z,10.00
2018-07-23T05:36:14.539Z,9.97
2018-07-23T05:38:42.032Z,10.83
2018-07-23T05:41:09.549Z,10.67
2018-07-23T05:43:37.074Z,10.57
2018-07-23T05:46:04.646Z,11.40
2018-07-23T05:48:32.204Z,11.10
2018-07-23T05:50:59.752Z,11.20
2018-07-23T05:53:27.344Z,9.73
2018-07-23T05:55:54.968Z,11.63
2018-07-23T05:58:22.512Z,11.40
2018-07-23T06:00:50.070Z,11.87
2018-07-23T06:03:17.631Z,12.47
2018-07-23T06:05:45.172Z,13.37
2018-07-23T06:08:12.710Z,11.37
2018-07-23T06:10:40.286Z,10.83
2018-07-23T06:13:07.943Z,9.20
2018-07-23T06:15:35.440Z,13.30
2018-07-23T06:18:02.939Z,14.83
2018-07-23T06:20:30.463Z,13.73
2018-07-23T06:22:57.949Z,14.67
2018-07-23T06:25:25.507Z,16.10
2018-07-23T06:27:53.150Z,14.50
2018-07-23T06:30:20.747Z,13.70
2018-07-23T06:32:48.164Z,14.47
2018-07-23T06:35:15.664Z,15.60
2018-07-23T06:37:43.165Z,15.53
2018-07-23T06:40:10.599Z,15.77
2018-07-23T06:42:38.170Z,15.87
2018-07-23T06:45:05.668Z,16.60
2018-07-23T06:47:33.224Z,17.40
2018-07-23T06:50:00.658Z,15.73
2018-07-23T06:52:28.194Z,17.00
2018-07-23T06:54:55.906Z,17.60
2018-07-23T06:57:23.392Z,15.20
2018-07-23T06:59:50.902Z,17.20
2018-07-23T07:02:18.387Z,15.27
2018-07-23T07:04:45.859Z,14.70
2018-07-23T07:07:13.379Z,16.87
2018-07-23T07:09:40.875Z,16.40
2018-07-23T07:12:08.364Z,16.50
2018-07-23T07:14:35.867Z,13.37
2018-07-23T07:17:03.389Z,17.50
2018-07-23T07:19:30.875Z,16.77
2018-07-23T07:21:58.401Z,16.90
2018-07-23T07:24:25.922Z,15.20
2018-07-23T07:26:53.491Z,16.63
2018-07-23T07:29:20.998Z,17.40
2018-07-23T07:31:48.517Z,17.20
2018-07-23T07:34:16.039Z,17.13
2018-07-23T07:36:43.583Z,15.30
2018-07-23T07:39:12.436Z,15.43
2018-07-23T07:41:40.437Z,14.50
2018-07-23T07:44:08.571Z,14.53
2018-07-23T07:46:36.595Z,13.30
2018-07-23T07:49:04.116Z,13.63
2018-07-23T07:51:31.635Z,6.60
2018-07-23T07:53:59.235Z,5.60
2018-07-23T07:56:26.707Z,5.00
2018-07-23T07:58:54.269Z,10.10
2018-07-23T08:01:21.762Z,9.67
2018-07-23T08:03:49.264Z,12.13
2018-07-23T08:06:16.757Z,6.97
2018-07-23T08:08:44.483Z,5.97
2018-07-23T08:11:12.002Z,4.93
2018-07-23T08:13:39.567Z,7.73
2018-07-23T08:16:07.084Z,7.80
2018-07-23T08:18:34.611Z,7.03
2018-07-23T08:21:02.106Z,5.40
2018-07-23T08:23:29.587Z,5.77
2018-07-23T08:25:57.151Z,3.80
2018-07-23T08:28:24.649Z,5.23
2018-07-23T08:30:52.191Z,5.20
2018-07-23T08:33:19.752Z,5.10
2018-07-23T08:35:47.259Z,3.70
2018-07-23T08:38:14.792Z,5.27
2018-07-23T08:40:42.302Z,3.67
2018-07-23T08:43:09.867Z,3.73
2018-07-23T08:45:37.401Z,4.00
2018-07-23T08:48:04.905Z,4.00
2018-07-23T08:50:32.420Z,3.60
2018-07-23T08:52:59.993Z,3.40
2018-07-23T08:55:27.636Z,3.20
2018-07-23T08:57:55.244Z,4.50
2018-07-23T09:00:22.817Z,3.67
2018-07-23T09:02:50.470Z,5.10
2018-07-23T09:05:18.031Z,4.40
2018-07-23T09:07:45.490Z,2.80
2018-07-23T09:10:13.112Z,5.87
2018-07-23T09:12:40.622Z,4.07
2018-07-23T09:15:08.218Z,3.67
2018-07-23T09:17:35.705Z,2.87
2018-07-23T09:20:03.915Z,3.23
2018-07-23T09:22:31.383Z,3.30
2018-07-23T09:24:58.943Z,2.93
2018-07-23T09:27:26.393Z,3.10
2018-07-23T09:29:53.906Z,2.43
2018-07-23T09:32:21.393Z,2.63
2018-07-23T09:34:48.853Z,3.43
2018-07-23T09:37:16.478Z,2.83
2018-07-23T09:39:43.966Z,2.70
2018-07-23T09:42:11.506Z,2.90
2018-07-23T09:44:39.029Z,2.40
2018-07-23T09:47:06.652Z,2.87
2018-07-23T09:49:34.068Z,2.83
2018-07-23T09:52:01.563Z,2.50
2018-07-23T09:54:29.187Z,2.23
2018-07-23T09:56:56.701Z,2.83
2018-07-23T09:59:24.251Z,2.67
2018-07-23T10:01:51.720Z,2.60
2018-07-23T10:04:19.217Z,2.73
2018-07-23T10:06:46.790Z,2.30
2018-07-23T10:09:14.253Z,2.50
2018-07-23T10:11:41.771Z,2.27
2018-07-23T10:14:09.420Z,2.50
2018-07-23T10:16:36.995Z,2.40
2018-07-23T10:19:04.525Z,2.13
2018-07-23T10:21:32.272Z,2.13
2018-07-23T10:23:59.749Z,2.27
2018-07-23T10:26:27.219Z,1.90
2018-07-23T10:28:54.746Z,1.80
2018-07-23T10:31:22.285Z,1.60
2018-07-23T10:33:49.768Z,2.10
2018-07-23T10:36:17.225Z,2.03
2018-07-23T10:38:44.753Z,1.87
2018-07-23T10:41:12.253Z,2.10
2018-07-23T10:43:39.698Z,1.77
2018-07-23T10:46:07.163Z,2.10
2018-07-23T10:48:34.639Z,2.17
2018-07-23T10:51:02.188Z,2.30
2018-07-23T10:53:29.622Z,2.13
2018-07-23T10:55:57.082Z,1.70
2018-07-23T10:58:24.580Z,1.67
2018-07-23T11:00:52.078Z,1.73
2018-07-23T11:03:19.559Z,2.13
2018-07-23T11:05:47.033Z,2.10
2018-07-23T11:08:14.541Z,1.80
2018-07-23T11:10:42.015Z,1.83
2018-07-23T11:13:09.474Z,1.63
2018-07-23T11:15:36.931Z,1.80
2018-07-23T11:18:04.420Z,1.57
2018-07-23T11:20:31.939Z,1.90
2018-07-23T11:22:59.415Z,1.80
2018-07-23T11:25:40.376Z,2.13
2018-07-23T11:27:55.136Z,1.80
2018-07-23T11:30:23.111Z,2.40
2018-07-23T11:32:50.947Z,2.47
2018-07-23T11:35:18.861Z,2.53
2018-07-23T11:37:46.350Z,1.60
2018-07-23T11:40:14.820Z,2.10
2018-07-23T11:42:42.331Z,1.73
2018-07-23T11:45:09.923Z,2.03
2018-07-23T11:47:37.440Z,1.93
2018-07-23T11:50:04.967Z,2.10
2018-07-23T11:52:32.430Z,2.40
2018-07-23T11:54:59.925Z,2.30
2018-07-23T11:57:27.444Z,1.70
2018-07-23T11:59:54.960Z,2.13
2018-07-23T12:02:22.476Z,2.23
2018-07-23T12:04:49.917Z,2.03
2018-07-23T12:07:17.412Z,2.20
2018-07-23T12:09:44.903Z,2.20
2018-07-23T12:12:12.352Z,2.00
2018-07-23T12:14:39.815Z,2.00
2018-07-23T12:17:07.292Z,2.03
2018-07-23T12:19:34.755Z,1.90
2018-07-23T12:22:02.307Z,2.93
2018-07-23T12:24:29.798Z,2.43
2018-07-23T12:26:57.264Z,3.20
2018-07-23T12:29:24.763Z,2.40
2018-07-23T12:31:52.299Z,2.60
2018-07-23T12:34:19.765Z,2.07
2018-07-23T12:36:48.275Z,2.30
2018-07-23T12:39:15.786Z,2.60
2018-07-23T12:41:43.301Z,2.80
2018-07-23T12:44:10.980Z,2.60
2018-07-23T12:46:38.560Z,2.77
2018-07-23T12:49:06.171Z,2.37
2018-07-23T12:51:33.832Z,3.10
2018-07-23T12:54:01.335Z,3.00
2018-07-23T12:56:28.868Z,2.80
2018-07-23T12:58:56.334Z,2.47
2018-07-23T13:01:23.811Z,2.40
2018-07-23T13:03:51.456Z,2.77
2018-07-23T13:06:18.955Z,2.60
2018-07-23T13:08:46.474Z,3.50
2018-07-23T13:11:13.962Z,2.60
2018-07-23T13:13:41.477Z,2.40
2018-07-23T13:16:09.008Z,2.50
2018-07-23T13:18:36.814Z,2.40
2018-07-23T13:21:04.375Z,2.40
2018-07-23T13:23:31.893Z,3.17
2018-07-23T13:25:59.445Z,1.93
2018-07-23T13:28:26.959Z,2.70
2018-07-23T13:30:54.450Z,2.23
2018-07-23T13:33:21.922Z,2.60
2018-07-23T13:35:49.487Z,2.60
2018-07-23T13:38:17.134Z,2.47
2018-07-23T13:40:44.651Z,1.83
2018-07-23T13:43:12.352Z,2.90
2018-07-23T13:45:40.062Z,3.23
2018-07-23T13:48:07.564Z,2.90
2018-07-23T13:50:35.083Z,2.60
2018-07-23T13:53:02.544Z,3.23
2018-07-23T13:55:30.017Z,2.93
2018-07-23T13:57:57.689Z,2.70
2018-07-23T14:00:25.303Z,2.77
2018-07-23T14:02:52.826Z,2.53
2018-07-23T14:05:20.634Z,2.87
2018-07-23T14:07:49.440Z,2.80
2018-07-23T14:10:17.052Z,2.80
2018-07-23T14:12:44.909Z,3.00
2018-07-23T14:15:12.473Z,2.67
2018-07-23T14:17:39.929Z,2.97
2018-07-23T14:20:07.452Z,3.47
2018-07-23T14:22:35.006Z,2.93
2018-07-23T14:25:02.516Z,3.13
2018-07-23T14:27:30.033Z,2.80
2018-07-23T14:29:57.595Z,2.83
2018-07-23T14:32:25.132Z,3.00
2018-07-23T14:34:52.675Z,3.00
2018-07-23T14:37:20.171Z,2.97
2018-07-23T14:39:47.932Z,3.07
2018-07-23T14:42:15.487Z,2.90
2018-07-23T14:44:42.957Z,3.50
2018-07-23T14:47:10.522Z,3.50
2018-07-23T14:49:38.016Z,3.10
2018-07-23T14:52:05.599Z,2.97
2018-07-23T14:54:33.163Z,2.63
2018-07-23T14:57:00.668Z,2.97
2018-07-23T14:59:28.377Z,2.93
2018-07-23T15:01:55.934Z,2.80
2018-07-23T15:04:23.419Z,2.80
2018-07-23T15:06:51.124Z,3.47
2018-07-23T15:09:18.665Z,2.43
2018-07-23T15:11:46.123Z,3.03
2018-07-23T15:14:13.766Z,3.90
2018-07-23T15:16:41.376Z,2.83
2018-07-23T15:19:08.838Z,2.80
2018-07-23T15:21:36.782Z,2.90
2018-07-23T15:24:04.435Z,2.70
2018-07-23T15:26:31.915Z,3.50
2018-07-23T15:28:59.448Z,3.40
2018-07-23T15:31:26.951Z,4.03
2018-07-23T15:33:54.449Z,3.07
2018-07-23T15:36:21.955Z,4.13
2018-07-23T15:38:49.527Z,3.70
2018-07-23T15:41:17.103Z,4.03
2018-07-23T15:43:44.607Z,3.43
2018-07-23T15:46:12.797Z,3.70
2018-07-23T15:48:40.246Z,3.90
2018-07-23T15:51:07.840Z,4.40
2018-07-23T15:53:35.388Z,3.63
2018-07-23T15:56:02.980Z,2.80
2018-07-23T15:58:30.541Z,4.27
2018-07-23T16:00:58.020Z,4.43
2018-07-23T16:03:25.528Z,4.10
2018-07-23T16:05:52.995Z,4.80
2018-07-23T16:08:20.483Z,4.33
2018-07-23T16:10:48.078Z,3.53
2018-07-23T16:13:15.524Z,3.47
2018-07-23T16:15:43.062Z,3.80
2018-07-23T16:18:10.575Z,3.97
2018-07-23T16:20:38.247Z,3.90
2018-07-23T16:23:05.805Z,3.20
2018-07-23T16:25:33.335Z,3.20
2018-07-23T16:28:00.964Z,4.00
2018-07-23T16:30:28.490Z,3.70
2018-07-23T16:32:56.496Z,3.50
2018-07-23T16:35:24.011Z,4.00
2018-07-23T16:37:51.544Z,4.37
2018-07-23T16:40:19.306Z,6.60
2018-07-23T16:42:46.854Z,3.80
2018-07-23T16:45:14.335Z,3.67
2018-07-23T16:47:41.832Z,3.53
2018-07-23T16:50:09.542Z,3.40
2018-07-23T16:52:37.173Z,3.63
2018-07-23T16:55:04.885Z,3.90
2018-07-23T16:57:32.354Z,3.80
2018-07-23T16:59:59.852Z,3.77
2018-07-23T17:02:27.309Z,3.27
2018-07-23T17:04:54.818Z,3.50
2018-07-23T17:07:22.374Z,3.20
2018-07-23T17:09:50.105Z,2.97
2018-07-23T17:12:17.602Z,4.80
2018-07-23T17:14:45.159Z,6.43
2018-07-23T17:17:12.759Z,4.90
2018-07-23T17:19:40.266Z,4.53
2018-07-23T17:22:08.585Z,3.73
2018-07-23T17:24:36.105Z,4.20
2018-07-23T17:27:03.590Z,4.00
2018-07-23T17:29:31.098Z,3.50
2018-07-23T17:31:58.571Z,3.30
2018-07-23T17:34:26.080Z,3.73
2018-07-23T17:36:53.620Z,3.40
2018-07-23T17:39:21.160Z,3.37
2018-07-23T17:41:48.759Z,4.10
2018-07-23T17:44:16.378Z,4.93
2018-07-23T17:46:43.834Z,3.90
2018-07-23T17:49:11.415Z,3.37
2018-07-23T17:51:39.750Z,4.03
2018-07-23T17:54:07.409Z,3.93
2018-07-23T17:56:35.090Z,3.80
2018-07-23T17:59:02.747Z,3.67
2018-07-23T18:01:30.378Z,3.50
2018-07-23T18:03:58.118Z,3.80
2018-07-23T18:06:25.756Z,3.80
2018-07-23T18:08:53.409Z,10.87
2018-07-23T18:11:21.277Z,4.67
2018-07-23T18:13:48.918Z,3.50
2018-07-23T18:16:16.673Z,3.90
2018-07-23T18:18:44.329Z,4.00
2018-07-23T18:21:12.110Z,5.17
2018-07-23T18:23:39.855Z,4.40
2018-07-23T18:26:07.727Z,5.27
2018-07-23T18:28:35.692Z,8.17
2018-07-23T18:31:03.583Z,3.67
2018-07-23T18:33:31.229Z,3.80
2018-07-23T18:35:58.787Z,4.60
2018-07-23T18:38:26.681Z,4.03
2018-07-23T18:40:54.224Z,3.93
2018-07-23T18:43:21.797Z,3.97
2018-07-23T18:45:49.363Z,3.40
2018-07-23T18:49:34.378Z,3.93
2018-07-23T18:52:03.930Z,6.63
2018-07-23T18:54:32.128Z,4.37
2018-07-23T18:57:00.752Z,4.30
2018-07-23T18:59:28.331Z,3.57
2018-07-23T19:01:56.392Z,4.17
2018-07-23T19:04:24.074Z,5.03
2018-07-23T19:06:51.635Z,3.97
2018-07-23T19:09:20.429Z,3.70
2018-07-23T19:11:49.315Z,3.47
2018-07-23T19:14:17.290Z,4.17
2018-07-23T19:16:45.267Z,3.93
2018-07-23T19:19:13.002Z,9.50
2018-07-23T19:21:40.667Z,4.73
2018-07-23T19:24:08.199Z,5.63
2018-07-23T19:26:35.885Z,3.43
2018-07-23T19:29:03.735Z,4.30
2018-07-23T19:31:31.464Z,4.30
2018-07-23T19:34:00.300Z,3.83
2018-07-23T19:36:28.218Z,4.43
2018-07-23T19:38:56.126Z,4.73
2018-07-23T19:41:24.220Z,4.13
2018-07-23T19:43:52.379Z,4.23
2018-07-23T19:46:20.094Z,4.47
2018-07-23T19:48:47.990Z,4.23
2018-07-23T19:51:15.694Z,4.93
2018-07-23T19:53:43.429Z,4.20
2018-07-23T19:58:44.309Z,4.83
2018-07-23T20:01:11.868Z,4.40
2018-07-23T20:03:39.408Z,4.33
2018-07-23T20:06:06.972Z,4.47
2018-07-23T20:08:34.470Z,4.20
2018-07-23T20:11:01.984Z,4.10
2018-07-23T20:13:29.670Z,3.77
2018-07-23T20:15:57.425Z,3.80
2018-07-23T20:18:25.233Z,3.93
2018-07-23T20:20:52.769Z,4.57
2018-07-23T20:23:20.207Z,4.37
2018-07-23T20:25:47.748Z,4.57
2018-07-23T20:28:15.307Z,5.23
2018-07-23T20:30:42.822Z,5.17
2018-07-23T20:33:10.379Z,5.87
2018-07-23T20:35:37.938Z,5.20
2018-07-23T20:38:05.687Z,5.53
2018-07-23T20:40:33.245Z,5.33
2018-07-23T20:43:00.830Z,5.23
2018-07-23T20:45:28.404Z,6.07
2018-07-23T20:47:56.212Z,4.87
2018-07-23T20:50:23.837Z,6.13
2018-07-23T20:52:51.598Z,5.60
2018-07-23T20:55:19.302Z,5.23
2018-07-23T20:57:46.923Z,6.30
2018-07-23T21:00:14.795Z,5.30
2018-07-23T21:02:42.727Z,5.50
2018-07-23T21:05:10.255Z,5.63
2018-07-23T21:07:37.939Z,5.50
2018-07-23T21:10:05.615Z,4.70
2018-07-23T21:12:33.221Z,5.90
2018-07-23T21:15:00.799Z,5.30
2018-07-23T21:17:28.538Z,4.50
2018-07-23T21:19:56.308Z,5.53
2018-07-23T21:22:24.095Z,5.27
2018-07-23T21:24:51.707Z,4.80
2018-07-23T21:27:19.261Z,5.23
2018-07-23T21:29:47.141Z,5.33
2018-07-23T21:32:15.008Z,5.80
2018-07-23T21:34:42.681Z,5.00
2018-07-23T21:37:10.284Z,5.00
2018-07-23T21:39:37.899Z,4.90
2018-07-23T21:42:05.672Z,5.57
2018-07-23T21:44:33.264Z,5.10
2018-07-23T21:47:00.999Z,4.67
2018-07-23T21:49:28.818Z,5.20
2018-07-23T21:51:56.724Z,5.23
2018-07-23T21:54:24.450Z,5.77
2018-07-23T21:56:52.204Z,5.27
2018-07-23T21:59:22.039Z,5.50
2018-07-23T22:01:49.540Z,4.93
2018-07-23T22:04:17.096Z,5.80
2018-07-23T22:06:44.785Z,5.90
2018-07-23T22:09:12.288Z,5.70
2018-07-23T22:11:39.857Z,5.30
2018-07-23T22:14:07.955Z,5.53
2018-07-23T22:16:35.464Z,5.40
2018-07-23T22:19:03.019Z,5.80
2018-07-23T22:21:30.553Z,5.97
2018-07-23T22:23:58.052Z,5.07
2018-07-23T22:26:25.543Z,5.57
2018-07-23T22:28:53.056Z,5.47
2018-07-23T22:31:20.535Z,4.80
2018-07-23T22:33:48.068Z,5.60
2018-07-23T22:36:15.802Z,5.43
2018-07-23T22:38:43.342Z,4.97
2018-07-23T22:41:10.831Z,4.60
2018-07-23T22:43:38.321Z,5.63
2018-07-23T22:46:05.796Z,5.00
2018-07-23T22:48:33.318Z,6.67
2018-07-23T22:51:00.910Z,5.13
2018-07-23T22:53:28.433Z,5.07
2018-07-23T22:55:55.958Z,5.53
2018-07-23T22:58:23.444Z,5.27
2018-07-23T23:00:50.942Z,5.63
2018-07-23T23:03:18.426Z,5.20
2018-07-23T23:05:45.947Z,5.80
2018-07-23T23:08:13.482Z,5.27
2018-07-23T23:10:41.740Z,5.70
2018-07-23T23:13:09.262Z,5.40
2018-07-23T23:15:36.759Z,5.27
2018-07-23T23:18:04.249Z,5.27
2018-07-23T23:20:31.735Z,5.23
2018-07-23T23:22:59.251Z,5.57
2018-07-23T23:25:26.781Z,5.40
2018-07-23T23:27:54.262Z,5.43
2018-07-23T23:30:21.770Z,6.10
2018-07-23T23:32:49.262Z,5.90
2018-07-23T23:35:16.801Z,5.33
2018-07-23T23:37:44.291Z,5.80
2018-07-23T23:40:11.773Z,5.40
2018-07-23T23:42:39.241Z,5.50
2018-07-23T23:45:06.735Z,6.10
2018-07-23T23:47:34.233Z,5.63
2018-07-23T23:50:01.733Z,5.63
2018-07-23T23:52:29.254Z,5.37
2018-07-23T23:54:56.746Z,5.50
2018-07-23T23:57:24.248Z,5.67
2018-07-23T23:59:51.699Z,5.70
